x

Nickerson Bank (44251) Wave Buoy

11:00pm - Thu 3rd Sep 2015 All times are UTC.

  • Sig Wave height 3.6ft
  • Peak Period 8s
  • Wind
    16mph, 18mph gusts
  • Sea Temp 62°f
  • Air Temp 60°f
  • Sea Pressure 1008.1mb

More Historic Weather Station data

Upgrade to MSW Pro to gain access to the past 30 days of data for over 8000 Wavebouys and Weather Stations around the globe.

Join Pro

Comparision Forecast

View Surf forecast
   
Thu 09/03 11:00pm 3.5ft 8s 16 18 mph 1008.1mb 62f 60f
10:00pm 3.5ft 8s 11 13 mph 1007.9mb 61f 60f
9:00pm 3.5ft 8s 13 18 mph 1007.7mb 61f 60f
8:00pm 4ft 8s 13 18 mph 1007.6mb 61f 61f
7:00pm 3.5ft 9s 13 16 mph 1007.8mb 61f 61f
6:00pm 3.5ft 9s 13 16 mph 1008.1mb 61f 60f
5:00pm 3.5ft 8s 13
mph
1008.5mb 61f 60f
4:00pm 3ft 8s 13 18 mph 1008.5mb 61f 60f
3:00pm 3ft 8s 13 16 mph 1008.7mb 60f 60f
2:00pm 3ft 8s 11 13 mph 1009mb 60f 59f
1:00pm 3ft 8s 11 13 mph 1009.1mb 59f 59f
12:00pm 3.5ft 8s 11 13 mph 1009.1mb 59f 58f
11:00am 3ft 8s 9 11 mph 1008.9mb 59f 58f
10:00am 3ft 8s 9 11 mph 1009.1mb 58f 58f
9:00am 3.5ft 8s 11
mph
1008.8mb 58f 58f
8:00am 3.5ft 8s 9
mph
1008.4mb 58f 58f
7:00am 3.5ft 5s 11 13 mph 1008.3mb 58f 58f
6:00am 3.5ft 8s 11 13 mph 1008.4mb 57f 58f
5:00am 3.5ft 8s 13 16 mph 1008.5mb 58f 58f
4:00am 3.5ft 8s 11 13 mph 1008.5mb 58f 58f
3:00am 3ft 8s 9
mph
1008.4mb 58f 58f
2:00am 3ft 8s 9 11 mph 1008.5mb 60f 58f
1:00am 3.5ft 9s 13 16 mph 1008.6mb 60f 58f
12:00am 3.5ft 8s 13 16 mph 1008.6mb 61f 58f
Wed 09/02 11:00pm 3.5ft 8s 16 18 mph 1008.5mb 61f 57f
10:00pm 3.5ft 7s 13 18 mph 1008.5mb 61f 57f
9:00pm 3.5ft 8s 16 18 mph 1008.1mb 61f 57f
8:00pm 4ft 8s 18 20 mph 1007.9mb 61f 57f
7:00pm 4ft 8s 18 22 mph 1007.7mb 61f 56f
6:00pm 4ft 7s 20 22 mph 1007.5mb 61f 56f
5:00pm 4.5ft 8s 18 20 mph 1007.4mb 61f 55f
4:00pm 4.5ft 8s 20 22 mph 1007.1mb 61f 55f
3:00pm 5ft 8s 16 20 mph 1007.1mb 61f 55f
2:00pm 4.5ft 8s 18 22 mph 1007.3mb 61f 54f
1:00pm 5ft 8s 18 22 mph 1006.9mb 61f 53f
12:00pm 6ft 8s 20 25 mph 1006.5mb 61f 53f
11:00am 6ft 8s 18 20 mph 1006.5mb 61f 53f
10:00am 7ft 8s 20 27 mph 1005.8mb 62f 53f
9:00am 6.5ft 8s 22 27 mph 1005.3mb 62f 53f
8:00am 7ft 8s 27 31 mph 1004.8mb 62f 54f
7:00am 6.5ft 7s 25 29 mph 1004.8mb 63f 54f
5:00am 6.5ft 8s 22 27 mph 1003.7mb 63f 55f
4:00am 6ft 8s 22 27 mph 1003mb 63f 56f
3:00am 6ft 7s 22 27 mph 1002.5mb 63f 57f
2:00am 5.5ft 8s 22 27 mph 1001.8mb 63f 59f
1:00am 5ft 7s 16 20 mph 1001mb 63f 61f
12:00am 4.5ft 8s 16 18 mph 1000.4mb 63f 62f
Tue 09/01 11:00pm 5ft 7s 9 11 mph 999.8mb 63f 61f
10:00pm 4.5ft 7s 9 11 mph 999.5mb 63f 61f
9:00pm 5ft 6s 4 7 mph 999mb 63f 61f
8:00pm 4.5ft 6s 9
mph
998.7mb 63f 61f
7:00pm 4.5ft 5s 9
mph
998.9mb 63f 62f
6:00pm 4.5ft 6s 11 13 mph 998.8mb 64f 61f
5:00pm 4ft 6s 7 9 mph 998.9mb 64f 62f
4:00pm 4ft 6s 4
mph
998.5mb 64f 63f
3:00pm 4ft 6s 11 13 mph 998.4mb 63f 63f
2:00pm 3.5ft 6s 13 16 mph 999.1mb 63f 62f
1:00pm 3.5ft 6s 11 13 mph 1000.1mb 63f 62f
12:00pm 3.5ft 6s 4 7 mph 1000.8mb 63f 62f
11:00am 3.5ft 6s 9 11 mph 1001.3mb 63f 62f
10:00am 3.5ft 4s 11
mph
1001.8mb 63f 62f
9:00am 3.5ft 4s 13 18 mph 1002.7mb 63f 63f
8:00am 3.5ft 4s 13 16 mph 1003mb 63f 62f
7:00am 3.5ft 4s 13 18 mph 1004.3mb 63f 62f
6:00am 3.5ft 5s 18 20 mph 1005.8mb 63f 62f
5:00am 3.5ft 6s 18 22 mph 1006.9mb 63f 62f
4:00am 3.5ft 5s 13 20 mph 1008.2mb 63f 62f
3:00am 3.5ft 6s 13 16 mph 1009.1mb 63f 63f
2:00am 3.5ft 6s 13 16 mph 1009.7mb 63f 62f
1:00am 3.5ft 6s 13 16 mph 1010.3mb 63f 62f
12:00am 3.5ft 6s 11 13 mph 1010.9mb 63f 62f
Mon 08/31 11:00pm 3.5ft 6s 11 13 mph 1011.4mb 63f 62f
10:00pm 3ft 13s 9
mph
1011.4mb 63f 62f
9:00pm 3.5ft 6s 9 11 mph 1011.9mb 63f 62f
8:00pm 3ft 6s 11 13 mph 1012.2mb 64f 63f
7:00pm 3ft 13s 9 11 mph 1012.6mb 64f 62f
6:00pm 3.5ft 14s 11 13 mph 1013.3mb 64f 62f
5:00pm 3.5ft 14s 9 11 mph 1013.8mb 63f 62f
4:00pm 3.5ft 14s 9 11 mph 1014.3mb 63f 62f
3:00pm 3.5ft 14s 4 7 mph 1014.8mb 63f 62f
2:00pm 3.5ft 5s 7 9 mph 1014.9mb 63f 62f
1:00pm 3.5ft 14s 11 13 mph 1014.9mb 63f 61f
12:00pm 3.5ft 14s 11 13 mph 1014.9mb 63f 61f
11:00am 3.5ft 14s 13
mph
1015mb 63f 61f
10:00am 3.5ft 14s 11 16 mph 1015mb 63f 61f
9:00am 4ft 13s 11 16 mph 1015mb 63f 62f
8:00am 4ft 14s 13 18 mph 1014.6mb 63f 61f
7:00am 4.5ft 13s 16 18 mph 1014.9mb 63f 61f
6:00am 4ft 14s 13 16 mph 1015.2mb 63f 61f
5:00am 4.5ft 14s 11 13 mph 1015.5mb 63f 61f
4:00am 4.5ft 14s 13 16 mph 1015.7mb 63f 61f
3:00am 4.5ft 14s 13 16 mph 1015.6mb 63f 61f
2:00am 4.5ft 14s 11 13 mph 1015.7mb 63f 61f
1:00am 4ft 14s 13 16 mph 1016.2mb 63f 61f